Terminal Aerodrome Forecast
Issued by NWS

Home | Current Version | Previous Version | Text Only | Print | Product List | Glossary On
Versions: 1 2 3 4 5 6 7 8 9 10 11 12 13 14 15
000
FTUS44 KCRP 191100
TAFLRD
TAF
KLRD 191128Z 1912/2012 14006KT P6SM BKN070
     FM191700 14015G20KT P6SM BKN040 OVC060
     FM200400 14012G18KT P6SM BKN030 OVC040
     FM200700 14005KT P6SM BKN015 OVC035 PROB30 2008/2012 5SM -TSRA
      OVC015CB=

USA.gov is the U.S. government's official web portal to all federal, state and local government web resources and services.